BKP806 VHHH-VTSM
Flight info
| Callsign | BKP806 |
|---|---|
| Flight time | N/A |
| Altitude | 36000 |
| Route | PECAN V10 SIKOU/K0857S1100 A202 ASSAD/K0856F360 A202 VILAO/N0461F360 A202 RAMEI W42 REGOS/N0455F370 A464 UPNEP |
| Aircraft | A319/M-SDE3FGHIRWY/LB1 |
Departure
| Time | N/A |
|---|---|
| Airport | Hong Kong International Airport (VHHH) |
Arrival
| Time | 2026-05-04 22:02 |
|---|---|
| Airport | Samui International Airport (VTSM) |
| Time | Latitude | Longitude | Altitude | Speed | Heading |
|---|---|---|---|---|---|
| 2026-05-04 20:04 | 19.25870 | 108.85532 | 36062 ft | 427 kts | 233° |
| 2026-05-04 20:05 | 19.22108 | 108.80672 | 36059 ft | 427 kts | 233° |
| 2026-05-04 20:05 | 19.18338 | 108.75812 | 36063 ft | 427 kts | 233° |
| 2026-05-04 20:06 | 19.14567 | 108.70949 | 36053 ft | 428 kts | 233° |
| 2026-05-04 20:06 | 19.10791 | 108.66090 | 36053 ft | 428 kts | 233° |
| 2026-05-04 20:07 | 19.07015 | 108.61231 | 36053 ft | 428 kts | 233° |
| 2026-05-04 20:07 | 19.03242 | 108.56369 | 36058 ft | 428 kts | 233° |
| 2026-05-04 20:08 | 18.99464 | 108.51508 | 36056 ft | 428 kts | 233° |
| 2026-05-04 20:08 | 18.95678 | 108.46641 | 36054 ft | 429 kts | 233° |
| 2026-05-04 20:09 | 18.91911 | 108.41807 | 36058 ft | 429 kts | 233° |
| 2026-05-04 20:09 | 18.88120 | 108.36942 | 36065 ft | 429 kts | 232° |
| 2026-05-04 20:10 | 18.84321 | 108.32080 | 36061 ft | 429 kts | 232° |
| 2026-05-04 20:10 | 18.80522 | 108.27215 | 36067 ft | 429 kts | 232° |
| 2026-05-04 20:11 | 18.76718 | 108.22342 | 36063 ft | 430 kts | 232° |
| 2026-05-04 20:11 | 18.72907 | 108.17472 | 36064 ft | 430 kts | 232° |
| 2026-05-04 20:12 | 18.69089 | 108.12603 | 36064 ft | 431 kts | 232° |
| 2026-05-04 20:12 | 18.65270 | 108.07736 | 36062 ft | 431 kts | 232° |
| 2026-05-04 20:13 | 18.61450 | 108.02867 | 36059 ft | 431 kts | 232° |
| 2026-05-04 20:13 | 18.58275 | 107.98815 | 36062 ft | 431 kts | 232° |
| 2026-05-04 20:14 | 18.54447 | 107.93940 | 36056 ft | 431 kts | 232° |
| 2026-05-04 20:14 | 18.50620 | 107.89063 | 36055 ft | 432 kts | 232° |
| 2026-05-04 20:15 | 18.46784 | 107.84185 | 36059 ft | 433 kts | 232° |
| 2026-05-04 20:15 | 18.44853 | 107.81734 | 35938 ft | 432 kts | 232° |
| 2026-05-04 20:15 | 18.42932 | 107.79295 | 35973 ft | 433 kts | 232° |
| 2026-05-04 20:16 | 18.39084 | 107.74413 | 35971 ft | 433 kts | 232° |
| 2026-05-04 20:16 | 18.35236 | 107.69532 | 35971 ft | 433 kts | 232° |
| 2026-05-04 20:17 | 18.31865 | 107.64351 | 35966 ft | 432 kts | 239° |
| 2026-05-04 20:17 | 18.28628 | 107.58979 | 35960 ft | 432 kts | 239° |
| 2026-05-04 20:18 | 18.25421 | 107.53687 | 35960 ft | 432 kts | 239° |
| 2026-05-04 20:18 | 18.22187 | 107.48361 | 35961 ft | 432 kts | 239° |
| 2026-05-04 20:19 | 18.18960 | 107.43031 | 35962 ft | 432 kts | 239° |
| 2026-05-04 20:19 | 18.15735 | 107.37700 | 35962 ft | 432 kts | 239° |
| 2026-05-04 20:20 | 18.12506 | 107.32372 | 35962 ft | 432 kts | 239° |
| 2026-05-04 20:20 | 18.09268 | 107.27049 | 35961 ft | 432 kts | 239° |
| 2026-05-04 20:21 | 18.06029 | 107.21726 | 35961 ft | 432 kts | 239° |
| 2026-05-04 20:21 | 18.01172 | 107.13739 | 35960 ft | 433 kts | 239° |
| 2026-05-04 20:22 | 17.97922 | 107.08415 | 35958 ft | 433 kts | 239° |
| 2026-05-04 20:22 | 17.94671 | 107.03085 | 35951 ft | 433 kts | 239° |
| 2026-05-04 20:23 | 17.91413 | 106.97756 | 35950 ft | 434 kts | 238° |
| 2026-05-04 20:23 | 17.88147 | 106.92424 | 35948 ft | 434 kts | 238° |
| 2026-05-04 20:24 | 17.84891 | 106.87081 | 35948 ft | 435 kts | 239° |
| 2026-05-04 20:24 | 17.81643 | 106.81726 | 35949 ft | 435 kts | 239° |
| 2026-05-04 20:25 | 17.78390 | 106.76368 | 35950 ft | 435 kts | 239° |
| 2026-05-04 20:25 | 17.75155 | 106.71045 | 35952 ft | 435 kts | 239° |
| 2026-05-04 20:26 | 17.71893 | 106.65684 | 35955 ft | 436 kts | 239° |
| 2026-05-04 20:26 | 17.68631 | 106.60323 | 35956 ft | 436 kts | 239° |
| 2026-05-04 20:27 | 17.65347 | 106.54969 | 35956 ft | 437 kts | 238° |
| 2026-05-04 20:27 | 17.62055 | 106.49611 | 35958 ft | 437 kts | 238° |
| 2026-05-04 20:28 | 17.58764 | 106.44251 | 35959 ft | 437 kts | 239° |
| 2026-05-04 20:28 | 17.55477 | 106.38894 | 35960 ft | 437 kts | 238° |
| 2026-05-04 20:29 | 17.52182 | 106.33537 | 35961 ft | 437 kts | 238° |
| 2026-05-04 20:29 | 17.48892 | 106.28175 | 35960 ft | 437 kts | 238° |
| 2026-05-04 20:30 | 17.45598 | 106.22823 | 35955 ft | 437 kts | 238° |
| 2026-05-04 20:30 | 17.42300 | 106.17482 | 35948 ft | 437 kts | 238° |
| 2026-05-04 20:31 | 17.39006 | 106.12136 | 35946 ft | 437 kts | 239° |
| 2026-05-04 20:31 | 17.35720 | 106.06784 | 35946 ft | 437 kts | 239° |
| 2026-05-04 20:32 | 17.32463 | 106.01408 | 35950 ft | 437 kts | 239° |
| 2026-05-04 20:32 | 17.29219 | 105.96031 | 35948 ft | 437 kts | 239° |
| 2026-05-04 20:33 | 17.25970 | 105.90664 | 35942 ft | 437 kts | 239° |
| 2026-05-04 20:33 | 17.22711 | 105.85300 | 35946 ft | 437 kts | 239° |
| 2026-05-04 20:34 | 17.19451 | 105.79936 | 35946 ft | 437 kts | 239° |
| 2026-05-04 20:34 | 17.16188 | 105.74565 | 35948 ft | 438 kts | 239° |
| 2026-05-04 20:35 | 17.12921 | 105.69193 | 35952 ft | 438 kts | 239° |
| 2026-05-04 20:35 | 17.09652 | 105.63821 | 35953 ft | 438 kts | 239° |
| 2026-05-04 20:36 | 17.06381 | 105.58459 | 35956 ft | 437 kts | 239° |
| 2026-05-04 20:36 | 17.03113 | 105.53100 | 35958 ft | 437 kts | 239° |
| 2026-05-04 20:37 | 16.99851 | 105.47747 | 35955 ft | 437 kts | 239° |
| 2026-05-04 20:37 | 16.96594 | 105.42392 | 35953 ft | 437 kts | 239° |
| 2026-05-04 20:38 | 16.93329 | 105.37049 | 35950 ft | 436 kts | 239° |
| 2026-05-04 20:38 | 16.90079 | 105.31744 | 35947 ft | 437 kts | 239° |
| 2026-05-04 20:39 | 16.86807 | 105.26399 | 35946 ft | 437 kts | 239° |
| 2026-05-04 20:39 | 16.83534 | 105.21061 | 35941 ft | 436 kts | 239° |
| 2026-05-04 20:40 | 16.80261 | 105.15730 | 35935 ft | 436 kts | 239° |
| 2026-05-04 20:40 | 16.76994 | 105.10401 | 35930 ft | 436 kts | 239° |
| 2026-05-04 20:41 | 16.73719 | 105.05072 | 35924 ft | 436 kts | 239° |
| 2026-05-04 20:41 | 16.70436 | 104.99741 | 35925 ft | 437 kts | 239° |
| 2026-05-04 20:42 | 16.67145 | 104.94407 | 35928 ft | 437 kts | 239° |
| 2026-05-04 20:42 | 16.63857 | 104.89072 | 35929 ft | 437 kts | 239° |
| 2026-05-04 20:43 | 16.60569 | 104.83741 | 35927 ft | 437 kts | 238° |
| 2026-05-04 20:43 | 16.57280 | 104.78412 | 35925 ft | 437 kts | 239° |
| 2026-05-04 20:44 | 16.53465 | 104.73470 | 35920 ft | 439 kts | 230° |
| 2026-05-04 20:44 | 16.49390 | 104.68732 | 35923 ft | 439 kts | 230° |
| 2026-05-04 20:45 | 16.45317 | 104.63993 | 35920 ft | 439 kts | 230° |
| 2026-05-04 20:45 | 16.41240 | 104.59249 | 35917 ft | 440 kts | 230° |
| 2026-05-04 20:46 | 16.37159 | 104.54499 | 35915 ft | 440 kts | 230° |
| 2026-05-04 20:46 | 16.33072 | 104.49751 | 35915 ft | 440 kts | 230° |
| 2026-05-04 20:47 | 16.28975 | 104.45007 | 35917 ft | 441 kts | 230° |
| 2026-05-04 20:47 | 16.24874 | 104.40259 | 35921 ft | 441 kts | 230° |
| 2026-05-04 20:48 | 16.20774 | 104.35563 | 35918 ft | 442 kts | 229° |
| 2026-05-04 20:48 | 16.16630 | 104.30844 | 35917 ft | 442 kts | 229° |
| 2026-05-04 20:49 | 16.12487 | 104.26123 | 35919 ft | 442 kts | 229° |
| 2026-05-04 20:49 | 16.08349 | 104.21398 | 35925 ft | 442 kts | 229° |
| 2026-05-04 20:50 | 16.04217 | 104.16669 | 35924 ft | 442 kts | 229° |
| 2026-05-04 20:50 | 16.00129 | 104.11906 | 35926 ft | 441 kts | 230° |
| 2026-05-04 20:51 | 15.96065 | 104.07128 | 35925 ft | 441 kts | 230° |
| 2026-05-04 20:51 | 15.91992 | 104.02361 | 35930 ft | 441 kts | 230° |
| 2026-05-04 20:52 | 15.87899 | 103.97610 | 35930 ft | 441 kts | 230° |
| 2026-05-04 20:52 | 15.83804 | 103.92858 | 35930 ft | 442 kts | 230° |
| 2026-05-04 20:53 | 15.79717 | 103.88093 | 35932 ft | 442 kts | 230° |
| 2026-05-04 20:53 | 15.75627 | 103.83339 | 35932 ft | 441 kts | 229° |
| 2026-05-04 20:54 | 15.71527 | 103.78594 | 35931 ft | 441 kts | 229° |
| 2026-05-04 20:54 | 15.67434 | 103.73848 | 35931 ft | 441 kts | 230° |
| 2026-05-04 20:55 | 15.63347 | 103.69095 | 35933 ft | 441 kts | 230° |
| 2026-05-04 20:55 | 15.59261 | 103.64348 | 35931 ft | 441 kts | 229° |
| 2026-05-04 20:56 | 15.55167 | 103.59608 | 35931 ft | 441 kts | 230° |
| 2026-05-04 20:56 | 15.51070 | 103.54867 | 35928 ft | 441 kts | 229° |
| 2026-05-04 20:57 | 15.46970 | 103.50129 | 35927 ft | 442 kts | 229° |
| 2026-05-04 20:57 | 15.42870 | 103.45385 | 35924 ft | 442 kts | 229° |
| 2026-05-04 20:58 | 15.38759 | 103.40643 | 35928 ft | 442 kts | 229° |
| 2026-05-04 20:58 | 15.34648 | 103.35903 | 35929 ft | 442 kts | 229° |
| 2026-05-04 20:59 | 15.30542 | 103.31157 | 35935 ft | 442 kts | 229° |
| 2026-05-04 20:59 | 15.26436 | 103.26413 | 35933 ft | 442 kts | 229° |
| 2026-05-04 21:00 | 15.22328 | 103.21671 | 35934 ft | 442 kts | 229° |
| 2026-05-04 21:00 | 15.18910 | 103.17739 | 35932 ft | 442 kts | 229° |
| 2026-05-04 21:01 | 15.14121 | 103.12245 | 35927 ft | 442 kts | 229° |
| 2026-05-04 21:01 | 15.10010 | 103.07512 | 35929 ft | 442 kts | 229° |
| 2026-05-04 21:02 | 15.06566 | 103.03547 | 35929 ft | 442 kts | 229° |
| 2026-05-04 21:02 | 15.01835 | 102.99496 | 35929 ft | 445 kts | 212° |
| 2026-05-04 21:03 | 14.96500 | 102.96241 | 35924 ft | 445 kts | 212° |
| 2026-05-04 21:03 | 14.91173 | 102.92973 | 35926 ft | 445 kts | 212° |
| 2026-05-04 21:04 | 14.85882 | 102.89725 | 35925 ft | 446 kts | 212° |
| 2026-05-04 21:04 | 14.80547 | 102.86455 | 35930 ft | 446 kts | 212° |
| 2026-05-04 21:05 | 14.75211 | 102.83193 | 35934 ft | 446 kts | 212° |
| 2026-05-04 21:05 | 14.69872 | 102.79931 | 35936 ft | 446 kts | 212° |
| 2026-05-04 21:06 | 14.64538 | 102.76670 | 35937 ft | 445 kts | 212° |
| 2026-05-04 21:06 | 14.59187 | 102.73442 | 35937 ft | 445 kts | 211° |
| 2026-05-04 21:07 | 14.53808 | 102.70266 | 35934 ft | 445 kts | 211° |
| 2026-05-04 21:07 | 14.48428 | 102.67095 | 35932 ft | 445 kts | 211° |
| 2026-05-04 21:08 | 14.43052 | 102.63917 | 35933 ft | 445 kts | 211° |
| 2026-05-04 21:08 | 14.37681 | 102.60739 | 35934 ft | 445 kts | 211° |
| 2026-05-04 21:09 | 14.32300 | 102.57568 | 35929 ft | 446 kts | 211° |
| 2026-05-04 21:09 | 14.26912 | 102.54408 | 35926 ft | 446 kts | 211° |
| 2026-05-04 21:10 | 14.21516 | 102.51251 | 35918 ft | 446 kts | 211° |
| 2026-05-04 21:10 | 14.16117 | 102.48097 | 35921 ft | 446 kts | 211° |
| 2026-05-04 21:11 | 14.10754 | 102.44952 | 35920 ft | 447 kts | 211° |
| 2026-05-04 21:11 | 14.05353 | 102.41788 | 35922 ft | 446 kts | 211° |
| 2026-05-04 21:12 | 13.99953 | 102.38627 | 35921 ft | 446 kts | 211° |
| 2026-05-04 21:12 | 13.94551 | 102.35468 | 35923 ft | 446 kts | 211° |
| 2026-05-04 21:13 | 13.89157 | 102.32313 | 35924 ft | 446 kts | 211° |
| 2026-05-04 21:13 | 13.83767 | 102.29160 | 35926 ft | 446 kts | 211° |
| 2026-05-04 21:14 | 13.78362 | 102.26020 | 35926 ft | 446 kts | 211° |
| 2026-05-04 21:14 | 13.72956 | 102.22875 | 35921 ft | 446 kts | 211° |
| 2026-05-04 21:15 | 13.67560 | 102.19727 | 35918 ft | 446 kts | 211° |
| 2026-05-04 21:15 | 13.62166 | 102.16577 | 35915 ft | 446 kts | 211° |
| 2026-05-04 21:16 | 13.56766 | 102.13439 | 35910 ft | 446 kts | 211° |
| 2026-05-04 21:16 | 13.51362 | 102.10308 | 35907 ft | 446 kts | 211° |
| 2026-05-04 21:17 | 13.45957 | 102.07169 | 35906 ft | 446 kts | 211° |
| 2026-05-04 21:17 | 13.40552 | 102.04032 | 35907 ft | 446 kts | 211° |
| 2026-05-04 21:18 | 13.35142 | 102.00896 | 35905 ft | 446 kts | 211° |
| 2026-05-04 21:18 | 13.29727 | 101.97766 | 35898 ft | 447 kts | 211° |
| 2026-05-04 21:19 | 13.24308 | 101.94629 | 35893 ft | 447 kts | 211° |
| 2026-05-04 21:19 | 13.18926 | 101.91504 | 35888 ft | 448 kts | 211° |
| 2026-05-04 21:20 | 13.13503 | 101.88349 | 35887 ft | 448 kts | 211° |
| 2026-05-04 21:20 | 13.08074 | 101.85198 | 35889 ft | 448 kts | 211° |
| 2026-05-04 21:21 | 13.02643 | 101.82049 | 35885 ft | 448 kts | 211° |
| 2026-05-04 21:21 | 12.97199 | 101.78914 | 35885 ft | 449 kts | 211° |
| 2026-05-04 21:22 | 12.91759 | 101.75761 | 35887 ft | 449 kts | 211° |
| 2026-05-04 21:22 | 12.86328 | 101.72583 | 35883 ft | 449 kts | 211° |
| 2026-05-04 21:23 | 12.80903 | 101.69397 | 35872 ft | 449 kts | 213° |
| 2026-05-04 21:23 | 12.76220 | 101.65236 | 35869 ft | 446 kts | 232° |
| 2026-05-04 21:24 | 12.72555 | 101.60107 | 35867 ft | 447 kts | 234° |
| 2026-05-04 21:24 | 12.68914 | 101.54947 | 35882 ft | 447 kts | 234° |
| 2026-05-04 21:25 | 12.65264 | 101.49777 | 35884 ft | 448 kts | 235° |
| 2026-05-04 21:25 | 12.61610 | 101.44604 | 35887 ft | 449 kts | 234° |
| 2026-05-04 21:26 | 12.57945 | 101.39435 | 35886 ft | 449 kts | 234° |
| 2026-05-04 21:26 | 12.54278 | 101.34261 | 35887 ft | 449 kts | 234° |
| 2026-05-04 21:27 | 12.50613 | 101.29083 | 35887 ft | 449 kts | 234° |
| 2026-05-04 21:27 | 12.46947 | 101.23901 | 35889 ft | 450 kts | 234° |
| 2026-05-04 21:28 | 12.43276 | 101.18722 | 35887 ft | 449 kts | 234° |
| 2026-05-04 21:28 | 12.39603 | 101.13549 | 35888 ft | 449 kts | 234° |
| 2026-05-04 21:29 | 12.35955 | 101.08413 | 35889 ft | 449 kts | 234° |
| 2026-05-04 21:29 | 12.32280 | 101.03245 | 35888 ft | 449 kts | 234° |
| 2026-05-04 21:30 | 12.28603 | 100.98078 | 35887 ft | 449 kts | 234° |
| 2026-05-04 21:30 | 12.24931 | 100.92904 | 35888 ft | 450 kts | 234° |
| 2026-05-04 21:31 | 12.19410 | 100.85140 | 35887 ft | 451 kts | 234° |
| 2026-05-04 21:32 | 12.15717 | 100.79960 | 35891 ft | 451 kts | 234° |
| 2026-05-04 21:32 | 12.12021 | 100.74786 | 35892 ft | 451 kts | 234° |
| 2026-05-04 21:33 | 12.08333 | 100.69606 | 35890 ft | 451 kts | 234° |
| 2026-05-04 21:33 | 12.04640 | 100.64428 | 35890 ft | 451 kts | 234° |
| 2026-05-04 21:33 | 12.02528 | 100.62054 | 35887 ft | 453 kts | 222° |
| 2026-05-04 21:34 | 11.99980 | 100.60167 | 35887 ft | 454 kts | 210° |
| 2026-05-04 21:34 | 11.97108 | 100.58824 | 35883 ft | 456 kts | 199° |
| 2026-05-04 21:34 | 11.94027 | 100.58062 | 35876 ft | 457 kts | 188° |
| 2026-05-04 21:35 | 11.87667 | 100.57736 | 35865 ft | 458 kts | 182° |
| 2026-05-04 21:35 | 11.81286 | 100.57510 | 35873 ft | 459 kts | 182° |
| 2026-05-04 21:36 | 11.74894 | 100.57285 | 35875 ft | 459 kts | 183° |
| 2026-05-04 21:36 | 11.68501 | 100.57064 | 35867 ft | 460 kts | 182° |
| 2026-05-04 21:37 | 11.62106 | 100.56840 | 35880 ft | 460 kts | 183° |
| 2026-05-04 21:37 | 11.55705 | 100.56611 | 35865 ft | 460 kts | 183° |
| 2026-05-04 21:38 | 11.49305 | 100.56383 | 35880 ft | 460 kts | 183° |
| 2026-05-04 21:38 | 11.42903 | 100.56161 | 35882 ft | 460 kts | 182° |
| 2026-05-04 21:39 | 11.36499 | 100.55943 | 35883 ft | 461 kts | 182° |
| 2026-05-04 21:39 | 11.30088 | 100.55723 | 35884 ft | 461 kts | 182° |
| 2026-05-04 21:40 | 11.23678 | 100.55497 | 35884 ft | 461 kts | 182° |
| 2026-05-04 21:40 | 11.17267 | 100.55268 | 35883 ft | 461 kts | 182° |
| 2026-05-04 21:41 | 11.10856 | 100.55040 | 35882 ft | 461 kts | 182° |
| 2026-05-04 21:41 | 11.04441 | 100.54811 | 35630 ft | 462 kts | 182° |
| 2026-05-04 21:41 | 11.01186 | 100.54696 | 34438 ft | 475 kts | 182° |
| 2026-05-04 21:42 | 10.97897 | 100.54577 | 33483 ft | 482 kts | 182° |
| 2026-05-04 21:42 | 10.94534 | 100.54443 | 32553 ft | 486 kts | 182° |
| 2026-05-04 21:42 | 10.91149 | 100.54303 | 31722 ft | 486 kts | 182° |
| 2026-05-04 21:42 | 10.87799 | 100.54161 | 31227 ft | 479 kts | 182° |
| 2026-05-04 21:43 | 10.84482 | 100.54020 | 30625 ft | 475 kts | 182° |
| 2026-05-04 21:43 | 10.81199 | 100.53883 | 30040 ft | 470 kts | 182° |
| 2026-05-04 21:43 | 10.77948 | 100.53750 | 29453 ft | 465 kts | 182° |
| 2026-05-04 21:43 | 10.74728 | 100.53618 | 28869 ft | 461 kts | 182° |
| 2026-05-04 21:44 | 10.71539 | 100.53488 | 28292 ft | 456 kts | 182° |
| 2026-05-04 21:44 | 10.68383 | 100.53356 | 27721 ft | 452 kts | 182° |
| 2026-05-04 21:44 | 10.65254 | 100.53227 | 27155 ft | 448 kts | 182° |
| 2026-05-04 21:44 | 10.62158 | 100.53098 | 26594 ft | 443 kts | 182° |
| 2026-05-04 21:45 | 10.59090 | 100.52972 | 26045 ft | 439 kts | 182° |
| 2026-05-04 21:45 | 10.56058 | 100.52847 | 25516 ft | 434 kts | 182° |
| 2026-05-04 21:45 | 10.53055 | 100.52723 | 24998 ft | 429 kts | 182° |
| 2026-05-04 21:45 | 10.50089 | 100.52603 | 24492 ft | 424 kts | 182° |
| 2026-05-04 21:46 | 10.47154 | 100.52483 | 24005 ft | 420 kts | 182° |
| 2026-05-04 21:46 | 10.44252 | 100.52364 | 23524 ft | 415 kts | 182° |
| 2026-05-04 21:46 | 10.41377 | 100.52244 | 23058 ft | 412 kts | 182° |
| 2026-05-04 21:46 | 10.38528 | 100.52127 | 22598 ft | 408 kts | 181° |
| 2026-05-04 21:47 | 10.35703 | 100.52013 | 22134 ft | 404 kts | 181° |
| 2026-05-04 21:47 | 10.32900 | 100.51898 | 21657 ft | 401 kts | 181° |
| 2026-05-04 21:47 | 10.30123 | 100.51782 | 21164 ft | 398 kts | 181° |
| 2026-05-04 21:47 | 10.27367 | 100.51668 | 20682 ft | 395 kts | 181° |
| 2026-05-04 21:48 | 10.24633 | 100.51554 | 20187 ft | 392 kts | 181° |
| 2026-05-04 21:48 | 10.21922 | 100.51442 | 19674 ft | 388 kts | 181° |
| 2026-05-04 21:48 | 10.19268 | 100.51333 | 19178 ft | 385 kts | 181° |
| 2026-05-04 21:48 | 10.16604 | 100.51223 | 18651 ft | 382 kts | 181° |
| 2026-05-04 21:49 | 10.13963 | 100.51114 | 18135 ft | 379 kts | 181° |
| 2026-05-04 21:49 | 10.11342 | 100.51008 | 17615 ft | 375 kts | 181° |
| 2026-05-04 21:49 | 10.08745 | 100.50903 | 17097 ft | 372 kts | 181° |
| 2026-05-04 21:49 | 10.06171 | 100.50799 | 16580 ft | 369 kts | 181° |
| 2026-05-04 21:50 | 10.03616 | 100.50695 | 16065 ft | 366 kts | 181° |
| 2026-05-04 21:50 | 10.01084 | 100.50590 | 15546 ft | 363 kts | 181° |
| 2026-05-04 21:50 | 9.98574 | 100.50488 | 15043 ft | 360 kts | 180° |
| 2026-05-04 21:50 | 9.96082 | 100.50388 | 14535 ft | 357 kts | 180° |
| 2026-05-04 21:51 | 9.94447 | 100.50322 | 14201 ft | 355 kts | 180° |
| 2026-05-04 21:51 | 9.91991 | 100.50222 | 13693 ft | 352 kts | 180° |
| 2026-05-04 21:51 | 9.89554 | 100.50122 | 13197 ft | 349 kts | 180° |
| 2026-05-04 21:51 | 9.87133 | 100.50025 | 12698 ft | 347 kts | 180° |
| 2026-05-04 21:52 | 9.84731 | 100.49929 | 12206 ft | 344 kts | 180° |
| 2026-05-04 21:52 | 9.81544 | 100.49798 | 11545 ft | 341 kts | 180° |
| 2026-05-04 21:52 | 9.79977 | 100.49733 | 11223 ft | 339 kts | 180° |
| 2026-05-04 21:52 | 9.77627 | 100.49640 | 10741 ft | 337 kts | 180° |
| 2026-05-04 21:53 | 9.75305 | 100.49414 | 10262 ft | 337 kts | 193° |
| 2026-05-04 21:53 | 9.73253 | 100.48351 | 10110 ft | 329 kts | 218° |
| 2026-05-04 21:53 | 9.71844 | 100.46583 | 9979 ft | 320 kts | 243° |
| 2026-05-04 21:53 | 9.71274 | 100.44441 | 9772 ft | 314 kts | 268° |
| 2026-05-04 21:54 | 9.71473 | 100.42248 | 9437 ft | 315 kts | 279° |
| 2026-05-04 21:54 | 9.71815 | 100.40053 | 9051 ft | 314 kts | 280° |
| 2026-05-04 21:54 | 9.72174 | 100.37875 | 8643 ft | 313 kts | 280° |
| 2026-05-04 21:54 | 9.72537 | 100.35708 | 8215 ft | 313 kts | 280° |
| 2026-05-04 21:55 | 9.72898 | 100.33545 | 7923 ft | 309 kts | 279° |
| 2026-05-04 21:55 | 9.73252 | 100.31407 | 7557 ft | 307 kts | 279° |
| 2026-05-04 21:55 | 9.73500 | 100.29265 | 7122 ft | 307 kts | 271° |
| 2026-05-04 21:55 | 9.73514 | 100.27066 | 6467 ft | 315 kts | 269° |
| 2026-05-04 21:56 | 9.73512 | 100.24850 | 6030 ft | 314 kts | 269° |
| 2026-05-04 21:56 | 9.73507 | 100.22637 | 5595 ft | 313 kts | 269° |
| 2026-05-04 21:56 | 9.73503 | 100.20451 | 5167 ft | 307 kts | 269° |
| 2026-05-04 21:56 | 9.73498 | 100.18323 | 4749 ft | 297 kts | 269° |
| 2026-05-04 21:57 | 9.73494 | 100.16266 | 4349 ft | 287 kts | 269° |
| 2026-05-04 21:57 | 9.73493 | 100.14270 | 3961 ft | 279 kts | 269° |
| 2026-05-04 21:57 | 9.73406 | 100.12342 | 3576 ft | 268 kts | 256° |
| 2026-05-04 21:57 | 9.72668 | 100.10727 | 3233 ft | 242 kts | 229° |
| 2026-05-04 21:58 | 9.71474 | 100.09709 | 3019 ft | 218 kts | 206° |
| 2026-05-04 21:58 | 9.70129 | 100.09085 | 2796 ft | 203 kts | 202° |
| 2026-05-04 21:58 | 9.68899 | 100.08515 | 2606 ft | 186 kts | 202° |
| 2026-05-04 21:58 | 9.67782 | 100.07997 | 2413 ft | 171 kts | 202° |
| 2026-05-04 21:59 | 9.66771 | 100.07529 | 2248 ft | 149 kts | 201° |
| 2026-05-04 21:59 | 9.65860 | 100.07107 | 2079 ft | 140 kts | 201° |
| 2026-05-04 21:59 | 9.64986 | 100.06706 | 1898 ft | 136 kts | 201° |
| 2026-05-04 21:59 | 9.64125 | 100.06320 | 1717 ft | 135 kts | 200° |
| 2026-05-04 22:00 | 9.63268 | 100.05947 | 1544 ft | 134 kts | 200° |
| 2026-05-04 22:00 | 9.62387 | 100.05662 | 1391 ft | 132 kts | 189° |
| 2026-05-04 22:00 | 9.61477 | 100.05607 | 1245 ft | 131 kts | 172° |
| 2026-05-04 22:00 | 9.60565 | 100.05660 | 1057 ft | 131 kts | 175° |
| 2026-05-04 22:01 | 9.59662 | 100.05736 | 883 ft | 130 kts | 171° |
| 2026-05-04 22:01 | 9.58764 | 100.05860 | 695 ft | 130 kts | 170° |
| 2026-05-04 22:01 | 9.57867 | 100.05959 | 510 ft | 130 kts | 173° |
| 2026-05-04 22:01 | 9.56967 | 100.06030 | 364 ft | 130 kts | 174° |
| 2026-05-04 22:02 | 9.56065 | 100.06128 | 190 ft | 130 kts | 172° |
| 2026-05-04 22:02 | 9.55168 | 100.06210 | 55 ft | 127 kts | 173° |
| 2026-05-04 22:02 | 9.54496 | 100.06274 | 53 ft | 55 kts | 174° |
| 2026-05-04 22:02 | 9.54302 | 100.06293 | 53 ft | 20 kts | 174° |
| 2026-05-04 22:03 | 9.54140 | 100.06309 | 53 ft | 26 kts | 174° |
| 2026-05-04 22:03 | 9.53958 | 100.06319 | 53 ft | 25 kts | 188° |
| 2026-05-04 22:03 | 9.53851 | 100.06335 | 50 ft | 9 kts | 83° |
| 2026-05-04 22:03 | 9.53919 | 100.06333 | 53 ft | 15 kts | 350° |
| 2026-05-04 22:04 | 9.54044 | 100.06318 | 53 ft | 19 kts | 355° |
| 2026-05-04 22:04 | 9.54185 | 100.06306 | 51 ft | 21 kts | 355° |
| 2026-05-04 22:04 | 9.54336 | 100.06289 | 50 ft | 23 kts | 354° |
| 2026-05-04 22:04 | 9.54496 | 100.06274 | 53 ft | 21 kts | 354° |
| 2026-05-04 22:05 | 9.54649 | 100.06259 | 53 ft | 23 kts | 354° |
| 2026-05-04 22:05 | 9.54811 | 100.06243 | 50 ft | 24 kts | 355° |
| 2026-05-04 22:05 | 9.54969 | 100.06227 | 53 ft | 21 kts | 354° |
| 2026-05-04 22:05 | 9.55095 | 100.06218 | 53 ft | 10 kts | 6° |
| 2026-05-04 22:06 | 9.55120 | 100.06260 | 53 ft | 7 kts | 91° |
| 2026-05-04 22:06 | 9.55119 | 100.06313 | 50 ft | 7 kts | 84° |
| 2026-05-04 22:06 | 9.55122 | 100.06338 | 53 ft | 2 kts | 84° |
| 2026-05-04 22:06 | 9.55122 | 100.06341 | 53 ft | 0 kts | 84° |